Time;durP1;ratioP1;P1;durP2;ratioP2;P2;SDS_P1;SDS_P2;PMS_P1;PMS_P2;Temp;Humidity;BMP_temperature;BMP_pressure;BME280_temperature;BME280_humidity;BME280_pressure;Samples;Min_cycle;Max_cycle;Signal;HPM_P1;HPM_P2
2022/06/29 00:00:26;;;;;;;9.57;4.72;;;19.80;99.90;;;;;;5290599;28;20051;-83
2022/06/29 00:02:57;;;;;;;11.80;4.95;;;19.80;99.90;;;;;;5290937;28;20024;-84
2022/06/29 00:05:29;;;;;;;8.85;4.82;;;19.60;99.90;;;;;;5290833;28;20157;-75
2022/06/29 00:08:00;;;;;;;5.97;4.45;;;19.70;99.90;;;;;;5290627;28;20019;-76
2022/06/29 00:10:31;;;;;;;10.20;5.05;;;19.80;99.90;;;;;;5290631;28;20058;-76
2022/06/29 00:13:02;;;;;;;8.25;4.40;;;19.60;99.90;;;;;;5290565;28;20030;-84
2022/06/29 00:15:33;;;;;;;8.02;4.78;;;19.60;99.90;;;;;;5290749;28;20047;-76
2022/06/29 00:18:04;;;;;;;5.65;4.45;;;19.60;99.90;;;;;;5290515;28;20019;-83
2022/06/29 00:20:35;;;;;;;12.85;5.15;;;19.70;99.90;;;;;;5290139;28;20027;-84
2022/06/29 00:23:06;;;;;;;11.07;5.15;;;19.70;99.90;;;;;;5290604;28;20027;-85
2022/06/29 00:25:37;;;;;;;11.23;4.80;;;19.70;99.90;;;;;;5290464;27;20028;-84
2022/06/29 00:28:07;;;;;;;11.13;5.32;;;19.70;99.90;;;;;;5290524;28;20019;-77
2022/06/29 00:30:38;;;;;;;10.55;5.50;;;19.60;99.90;;;;;;5290135;28;20043;-76
2022/06/29 00:33:09;;;;;;;9.88;4.60;;;19.70;99.90;;;;;;5290384;28;20028;-75
2022/06/29 00:35:39;;;;;;;5.90;4.57;;;19.70;99.90;;;;;;5290380;28;20034;-84
2022/06/29 00:38:10;;;;;;;7.43;4.70;;;19.60;99.90;;;;;;5290158;28;20031;-81
2022/06/29 00:40:41;;;;;;;10.93;4.80;;;19.80;99.90;;;;;;5290211;28;20019;-75
2022/06/29 00:43:12;;;;;;;9.10;4.75;;;19.80;99.90;;;;;;5290288;28;20051;-76
2022/06/29 00:45:43;;;;;;;9.80;4.80;;;19.90;99.90;;;;;;5290306;28;20030;-76
2022/06/29 00:48:13;;;;;;;8.52;4.65;;;19.90;99.90;;;;;;5290139;28;20076;-84
2022/06/29 00:50:46;;;;;;;9.50;4.68;;;19.80;99.90;;;;;;5289825;28;20035;-75
2022/06/29 00:53:18;;;;;;;9.43;4.97;;;19.90;99.90;;;;;;5290136;28;20019;-83
2022/06/29 00:55:51;;;;;;;10.57;4.97;;;19.70;99.90;;;;;;5290128;28;20027;-76
2022/06/29 00:58:23;;;;;;;13.00;5.50;;;19.90;99.90;;;;;;5290089;28;20111;-75
2022/06/29 01:01:02;;;;;;;6.72;4.63;;;19.70;99.90;;;;;;5289833;28;20059;-75
2022/06/29 01:03:33;;;;;;;8.80;5.25;;;19.90;99.90;;;;;;5289948;28;20024;-84
2022/06/29 01:06:04;;;;;;;8.55;4.88;;;19.60;99.90;;;;;;5290012;28;20031;-76
2022/06/29 01:08:35;;;;;;;11.05;6.03;;;19.80;99.90;;;;;;5289934;28;20482;-75
2022/06/29 01:11:05;;;;;;;11.52;5.78;;;19.90;99.90;;;;;;5289883;28;20032;-75
2022/06/29 01:13:42;;;;;;;9.98;5.22;;;19.80;99.90;;;;;;5289807;28;20103;-75
2022/06/29 01:16:13;;;;;;;8.75;4.82;;;20.00;99.90;;;;;;5289912;28;20032;-76
2022/06/29 01:18:43;;;;;;;11.07;4.88;;;19.80;99.90;;;;;;5289880;28;20110;-75
2022/06/29 01:21:18;;;;;;;9.13;5.18;;;19.80;99.90;;;;;;5289811;28;20443;-76
2022/06/29 01:23:49;;;;;;;13.63;5.13;;;19.80;99.90;;;;;;5289954;28;20020;-75
2022/06/29 01:26:19;;;;;;;7.13;5.53;;;19.80;99.90;;;;;;5289867;28;20073;-80
2022/06/29 01:28:50;;;;;;;6.55;4.90;;;19.90;99.90;;;;;;5289534;28;20039;-84
2022/06/29 01:31:21;;;;;;;12.55;5.70;;;19.80;99.90;;;;;;5289518;28;20040;-85
2022/06/29 01:33:52;;;;;;;11.13;6.00;;;19.70;99.90;;;;;;5294071;28;20027;-76
2022/06/29 01:36:22;;;;;;;12.65;5.30;;;19.70;99.90;;;;;;5293821;28;20475;-84
2022/06/29 01:38:53;;;;;;;11.30;5.45;;;19.70;99.90;;;;;;5294014;28;20099;-76
2022/06/29 01:41:24;;;;;;;10.05;5.70;;;19.80;99.90;;;;;;5293857;28;20056;-76
2022/06/29 01:43:55;;;;;;;12.32;5.57;;;19.80;99.90;;;;;;5293768;28;20016;-75
2022/06/29 01:46:25;;;;;;;9.43;5.20;;;19.90;99.90;;;;;;5293517;28;20031;-76
2022/06/29 01:48:56;;;;;;;11.45;5.72;;;19.70;99.90;;;;;;5293556;28;20015;-76
2022/06/29 01:51:27;;;;;;;10.25;5.55;;;19.80;99.90;;;;;;5293265;28;20036;-76
2022/06/29 01:53:58;;;;;;;8.57;5.47;;;19.80;99.90;;;;;;5293466;28;20509;-84
2022/06/29 01:56:28;;;;;;;11.73;5.28;;;19.80;99.90;;;;;;5293562;28;20471;-76
2022/06/29 01:59:00;;;;;;;9.82;5.35;;;19.80;99.90;;;;;;5293224;28;20467;-76
2022/06/29 02:01:30;;;;;;;8.88;5.32;;;20.00;99.90;;;;;;5293358;28;20035;-76
2022/06/29 02:04:01;;;;;;;12.32;5.07;;;20.00;99.90;;;;;;5292232;28;20028;-85
2022/06/29 02:06:33;;;;;;;9.57;5.55;;;20.10;99.90;;;;;;5292108;28;20108;-77
2022/06/29 02:09:03;;;;;;;8.18;5.57;;;20.00;99.90;;;;;;5292118;28;20042;-76
2022/06/29 02:11:34;;;;;;;9.63;5.78;;;19.80;99.90;;;;;;5292670;28;20031;-75
2022/06/29 02:14:05;;;;;;;10.07;5.80;;;19.90;99.90;;;;;;5293349;28;20020;-76
2022/06/29 02:16:36;;;;;;;11.50;5.20;;;20.00;99.90;;;;;;5293098;28;20104;-76
2022/06/29 02:19:07;;;;;;;10.00;5.70;;;19.80;99.90;;;;;;5293073;28;20043;-84
2022/06/29 02:21:38;;;;;;;8.95;5.05;;;19.90;99.90;;;;;;5292989;28;20052;-76
2022/06/29 02:24:08;;;;;;;11.25;5.35;;;19.80;99.90;;;;;;5292953;28;20051;-76
2022/06/29 02:26:39;;;;;;;8.02;5.65;;;19.90;99.90;;;;;;5292883;28;20024;-85
2022/06/29 02:29:10;;;;;;;12.90;6.00;;;20.00;99.90;;;;;;5292727;28;20455;-85
2022/06/29 02:34:46;;;;;;;8.33;5.07;;;20.00;99.90;;;;;;5292918;28;20025;-85
2022/06/29 02:37:16;;;;;;;7.68;5.65;;;19.90;99.90;;;;;;5292681;28;20110;-75
2022/06/29 02:39:48;;;;;;;13.63;5.30;;;19.90;99.90;;;;;;5292595;28;20526;-84
2022/06/29 02:42:19;;;;;;;9.25;5.68;;;20.10;99.90;;;;;;5292244;28;20073;-79
2022/06/29 02:44:50;;;;;;;12.38;5.55;;;20.10;99.90;;;;;;5292399;28;20020;-76
2022/06/29 02:47:21;;;;;;;11.93;5.57;;;20.00;99.90;;;;;;5292407;28;20031;-85
2022/06/29 02:49:52;;;;;;;10.80;5.50;;;20.10;99.90;;;;;;5292116;28;20031;-85
2022/06/29 02:52:22;;;;;;;17.27;5.97;;;20.20;99.90;;;;;;5292282;28;20015;-85
2022/06/29 02:54:53;;;;;;;9.38;5.95;;;20.30;99.90;;;;;;5292144;28;20020;-79
2022/06/29 02:57:24;;;;;;;7.78;5.20;;;20.20;99.90;;;;;;5290902;28;20058;-76
2022/06/29 02:59:55;;;;;;;13.88;6.13;;;20.20;99.90;;;;;;5291806;28;20526;-76
2022/06/29 03:02:26;;;;;;;10.80;5.93;;;20.20;99.90;;;;;;5292138;28;20054;-84
2022/06/29 03:04:56;;;;;;;9.32;5.60;;;20.30;99.90;;;;;;5292163;28;20081;-75
2022/06/29 03:07:27;;;;;;;13.25;5.63;;;20.40;99.90;;;;;;5292023;28;20027;-80
2022/06/29 03:09:58;;;;;;;13.48;6.32;;;20.20;99.90;;;;;;5290466;28;20372;-77
2022/06/29 03:12:29;;;;;;;10.70;5.63;;;20.30;99.90;;;;;;5292062;28;20370;-76
2022/06/29 03:15:00;;;;;;;12.68;5.38;;;20.50;99.90;;;;;;5291907;28;20475;-76
2022/06/29 03:17:31;;;;;;;11.57;5.32;;;20.70;99.90;;;;;;5291878;28;20016;-76
2022/06/29 03:20:04;;;;;;;11.48;5.03;;;20.80;99.90;;;;;;5291811;28;20019;-76
2022/06/29 03:22:35;;;;;;;8.10;4.30;;;20.90;99.90;;;;;;5291706;28;20032;-75
2022/06/29 03:25:06;;;;;;;7.97;4.97;;;21.10;99.90;;;;;;5291546;28;20092;-85
2022/06/29 03:27:37;;;;;;;7.13;4.60;;;21.20;99.90;;;;;;5291625;28;20480;-84
2022/06/29 03:30:09;;;;;;;11.10;4.53;;;21.10;99.90;;;;;;5290184;28;20032;-76
2022/06/29 03:32:40;;;;;;;9.27;4.38;;;21.20;99.90;;;;;;5291414;28;20030;-76
2022/06/29 03:35:10;;;;;;;7.95;5.00;;;21.30;99.90;;;;;;5291333;28;20020;-76
2022/06/29 03:37:41;;;;;;;9.65;4.63;;;21.10;99.90;;;;;;5291533;28;20034;-85
2022/06/29 03:40:12;;;;;;;9.52;5.18;;;21.20;99.90;;;;;;5291256;28;20111;-78
2022/06/29 03:42:43;;;;;;;9.65;4.63;;;21.20;99.90;;;;;;5291255;28;20511;-84
2022/06/29 03:45:13;;;;;;;8.88;4.10;;;21.10;99.90;;;;;;5291172;28;20063;-75
2022/06/29 03:47:44;;;;;;;17.33;5.40;;;21.30;99.90;;;;;;5291189;28;20424;-84
2022/06/29 03:50:15;;;;;;;8.77;4.35;;;21.30;99.90;;;;;;5290953;28;20458;-76
2022/06/29 03:52:46;;;;;;;12.43;5.25;;;21.40;99.90;;;;;;5290908;28;20364;-76
2022/06/29 03:55:17;;;;;;;6.78;4.30;;;21.40;99.90;;;;;;5290450;28;20090;-75
2022/06/29 03:57:48;;;;;;;10.98;4.72;;;21.40;99.90;;;;;;5290995;28;20027;-75
2022/06/29 04:00:19;;;;;;;8.65;4.57;;;21.50;99.90;;;;;;5290609;28;20127;-84
2022/06/29 04:02:49;;;;;;;11.15;5.28;;;21.60;99.90;;;;;;5290840;28;20020;-84
2022/06/29 04:05:20;;;;;;;9.25;4.22;;;21.80;99.90;;;;;;5290966;28;20068;-85
2022/06/29 04:07:51;;;;;;;12.40;4.88;;;21.80;99.90;;;;;;5290916;28;20479;-75
2022/06/29 04:10:22;;;;;;;7.22;3.50;;;21.90;99.90;;;;;;5290641;28;20046;-77
2022/06/29 04:12:52;;;;;;;12.05;3.42;;;21.90;99.90;;;;;;5290709;28;20028;-76
2022/06/29 04:15:23;;;;;;;7.72;3.17;;;22.00;99.90;;;;;;5290666;28;20028;-76
2022/06/29 04:17:54;;;;;;;9.57;3.75;;;22.00;99.90;;;;;;5290978;28;20043;-75
2022/06/29 04:23:14;;;;;;;9.18;3.08;;;22.30;99.90;;;;;;5228214;28;20598;-80
2022/06/29 04:25:45;;;;;;;8.80;2.92;;;22.60;99.90;;;;;;5226645;28;20044;-75
2022/06/29 04:28:16;;;;;;;7.90;3.33;;;22.60;99.90;;;;;;5227968;28;20116;-84
2022/06/29 04:30:46;;;;;;;15.48;2.85;;;22.60;99.90;;;;;;5227565;28;20040;-75
2022/06/29 04:33:17;;;;;;;11.02;3.30;;;22.50;99.90;;;;;;5227705;28;20035;-85
2022/06/29 04:35:48;;;;;;;10.93;2.90;;;22.50;99.90;;;;;;5227666;28;20017;-84
2022/06/29 04:38:19;;;;;;;10.73;2.78;;;22.50;99.90;;;;;;5227719;28;20121;-84
2022/06/29 04:40:49;;;;;;;12.23;3.42;;;22.60;99.90;;;;;;5227460;28;20381;-75
2022/06/29 04:43:20;;;;;;;15.73;3.03;;;22.80;99.90;;;;;;5227658;28;20025;-76
2022/06/29 04:48:41;;;;;;;14.00;3.33;;;22.70;99.90;;;;;;5227514;28;20061;-76
2022/06/29 04:51:11;;;;;;;11.93;2.58;;;22.70;99.90;;;;;;5227216;28;20090;-84
2022/06/29 04:53:44;;;;;;;11.95;3.00;;;22.60;99.90;;;;;;5227557;28;20108;-75
2022/06/29 04:56:16;;;;;;;13.98;3.05;;;22.70;99.90;;;;;;5227445;28;20032;-76
2022/06/29 04:58:47;;;;;;;8.70;3.22;;;22.60;99.90;;;;;;5227589;28;20021;-75
2022/06/29 05:01:18;;;;;;;10.13;2.80;;;22.50;99.90;;;;;;5227382;28;20029;-85
2022/06/29 05:03:50;;;;;;;10.32;2.88;;;22.60;99.90;;;;;;5227288;28;20059;-75
2022/06/29 05:06:21;;;;;;;12.95;3.28;;;22.50;99.90;;;;;;5228933;28;20044;-85
2022/06/29 05:08:52;;;;;;;9.82;3.40;;;22.80;99.90;;;;;;5231546;28;20017;-85
2022/06/29 05:11:23;;;;;;;13.00;3.28;;;22.90;99.90;;;;;;5231416;28;20052;-85
2022/06/29 05:13:54;;;;;;;15.18;3.30;;;22.90;99.90;;;;;;5231514;28;20095;-84
2022/06/29 05:16:25;;;;;;;10.20;3.00;;;22.90;99.90;;;;;;5231580;28;20047;-85
2022/06/29 05:18:55;;;;;;;9.10;3.20;;;22.90;99.90;;;;;;5231381;28;20020;-75
2022/06/29 05:21:26;;;;;;;12.18;3.53;;;22.90;99.90;;;;;;5231097;28;20435;-83
2022/06/29 05:23:57;;;;;;;14.25;3.58;;;23.00;99.90;;;;;;5231366;28;20032;-84
2022/06/29 05:26:28;;;;;;;14.40;3.38;;;22.90;99.90;;;;;;5231246;28;20053;-84
2022/06/29 05:28:59;;;;;;;11.90;3.63;;;22.80;99.90;;;;;;5231179;28;20049;-74
2022/06/29 05:31:31;;;;;;;14.32;3.20;;;22.80;99.90;;;;;;5230969;28;20041;-75
2022/06/29 05:34:01;;;;;;;8.25;3.20;;;22.70;99.90;;;;;;5231296;28;20017;-75
2022/06/29 05:36:32;;;;;;;12.13;2.42;;;22.80;99.90;;;;;;5230999;28;20031;-76
2022/06/29 05:39:03;;;;;;;11.40;3.15;;;22.80;99.90;;;;;;5231138;28;20445;-75
2022/06/29 05:41:34;;;;;;;14.80;3.17;;;22.80;99.90;;;;;;5230991;28;20140;-84
2022/06/29 05:44:05;;;;;;;12.63;3.33;;;22.70;99.90;;;;;;5230996;28;20037;-75
2022/06/29 05:46:36;;;;;;;14.57;2.92;;;22.80;99.90;;;;;;5230869;28;20025;-83
2022/06/29 05:49:06;;;;;;;19.50;3.20;;;22.80;99.90;;;;;;5230987;28;20028;-84
2022/06/29 05:51:37;;;;;;;13.18;3.67;;;22.70;99.90;;;;;;5230576;28;20041;-84
2022/06/29 05:54:08;;;;;;;16.33;3.50;;;22.90;99.90;;;;;;5230700;28;20041;-75
2022/06/29 05:56:39;;;;;;;12.13;3.13;;;22.90;99.90;;;;;;5230738;28;20056;-76
2022/06/29 05:59:09;;;;;;;11.10;3.38;;;23.00;99.90;;;;;;5230562;28;20104;-75
2022/06/29 06:01:40;;;;;;;10.50;2.95;;;22.90;99.90;;;;;;5230456;28;20045;-75
2022/06/29 06:04:11;;;;;;;11.00;2.70;;;23.00;99.90;;;;;;5230504;28;20091;-74
2022/06/29 06:06:42;;;;;;;15.85;3.10;;;23.00;99.90;;;;;;5230481;28;20108;-75
2022/06/29 06:09:12;;;;;;;11.70;3.10;;;23.10;99.90;;;;;;5230586;28;20040;-84
2022/06/29 06:11:43;;;;;;;14.52;4.03;;;23.20;99.90;;;;;;5230163;28;20041;-84
2022/06/29 06:14:14;;;;;;;12.32;2.80;;;23.40;99.90;;;;;;5230210;28;20096;-84
2022/06/29 06:16:45;;;;;;;16.88;3.83;;;23.50;99.90;;;;;;5230399;28;20482;-75
2022/06/29 06:19:16;;;;;;;15.93;3.30;;;23.40;99.90;;;;;;5229605;28;20423;-75
2022/06/29 06:21:46;;;;;;;11.18;2.97;;;23.40;99.90;;;;;;5229725;28;20115;-75
2022/06/29 06:24:17;;;;;;;18.38;3.40;;;23.70;99.90;;;;;;5230233;28;20074;-83
2022/06/29 06:26:48;;;;;;;10.93;3.05;;;24.10;99.90;;;;;;5230051;28;20021;-75
2022/06/29 06:29:19;;;;;;;19.75;3.20;;;23.80;99.90;;;;;;5230005;28;20368;-75
2022/06/29 06:31:49;;;;;;;9.90;3.00;;;23.70;99.90;;;;;;5228535;28;20120;-84
2022/06/29 06:34:20;;;;;;;16.52;2.92;;;23.90;99.90;;;;;;5230109;28;20531;-84
2022/06/29 06:36:51;;;;;;;14.73;2.80;;;24.20;99.90;;;;;;5230038;28;20151;-83
2022/06/29 06:39:22;;;;;;;15.48;3.05;;;24.20;99.90;;;;;;5228544;28;20505;-80
2022/06/29 06:41:53;;;;;;;12.15;3.38;;;24.10;99.90;;;;;;5229834;28;20021;-75
2022/06/29 06:44:23;;;;;;;15.35;3.20;;;24.40;99.90;;;;;;5229722;28;20025;-75
2022/06/29 06:46:54;;;;;;;13.27;3.15;;;24.40;99.90;;;;;;5229618;28;20507;-76
2022/06/29 06:49:25;;;;;;;8.10;2.78;;;24.30;99.90;;;;;;5229505;28;20025;-74
2022/06/29 06:51:56;;;;;;;12.70;2.78;;;24.30;99.90;;;;;;5229429;28;20457;-75
2022/06/29 06:54:27;;;;;;;14.95;3.50;;;24.30;99.90;;;;;;5229568;28;20029;-75
2022/06/29 06:56:58;;;;;;;13.15;2.88;;;24.30;99.90;;;;;;5229635;28;20060;-75
2022/06/29 06:59:29;;;;;;;11.32;2.97;;;23.90;99.90;;;;;;5229395;28;20033;-83
2022/06/29 07:02:00;;;;;;;11.15;2.53;;;24.10;99.90;;;;;;5229458;28;20025;-74
2022/06/29 07:04:31;;;;;;;14.32;2.80;;;24.10;99.90;;;;;;5228901;28;20420;-84
2022/06/29 07:07:02;;;;;;;10.85;2.47;;;24.10;99.90;;;;;;5227720;28;20021;-76
2022/06/29 07:09:32;;;;;;;12.23;2.75;;;24.40;99.90;;;;;;5229167;28;20032;-84
2022/06/29 07:12:03;;;;;;;11.93;3.15;;;24.40;99.90;;;;;;5229224;28;20053;-84
2022/06/29 07:14:34;;;;;;;15.30;2.85;;;24.40;99.90;;;;;;5229342;28;20429;-81
2022/06/29 07:17:05;;;;;;;11.77;3.00;;;24.30;99.90;;;;;;5229332;28;20053;-84
2022/06/29 07:19:36;;;;;;;11.25;2.83;;;24.50;99.90;;;;;;5228310;28;20029;-75
2022/06/29 07:22:07;;;;;;;10.60;2.65;;;24.20;99.90;;;;;;5228729;28;20049;-75
2022/06/29 07:24:37;;;;;;;10.32;3.00;;;23.90;99.90;;;;;;5228990;28;20029;-74
2022/06/29 07:27:08;;;;;;;11.02;2.90;;;23.90;99.90;;;;;;5228940;28;20380;-75
2022/06/29 07:29:40;;;;;;;14.77;2.97;;;24.00;99.90;;;;;;5226407;28;20112;-83
2022/06/29 07:32:11;;;;;;;12.35;2.88;;;24.20;99.90;;;;;;5228862;28;20029;-84
2022/06/29 07:34:42;;;;;;;10.80;2.75;;;24.30;99.90;;;;;;5228904;28;20032;-85
2022/06/29 07:37:13;;;;;;;9.10;2.70;;;24.60;99.90;;;;;;5227421;28;20112;-75
2022/06/29 07:39:44;;;;;;;13.70;3.00;;;24.80;99.90;;;;;;5228394;28;20472;-85
2022/06/29 07:42:14;;;;;;;10.38;2.58;;;25.30;99.90;;;;;;5228719;28;20070;-84
2022/06/29 07:44:45;;;;;;;12.90;2.63;;;24.90;99.90;;;;;;5228548;28;20086;-83
2022/06/29 07:47:16;;;;;;;10.95;2.70;;;24.60;99.90;;;;;;5228625;28;20017;-75
2022/06/29 07:49:47;;;;;;;12.73;2.90;;;24.40;99.90;;;;;;5228096;28;20404;-75
2022/06/29 07:52:18;;;;;;;12.48;3.28;;;24.40;99.90;;;;;;5228282;28;20021;-75
2022/06/29 07:54:49;;;;;;;12.90;2.60;;;24.80;99.90;;;;;;5227128;28;20017;-75
2022/06/29 07:57:19;;;;;;;10.02;2.30;;;25.00;99.90;;;;;;5228203;28;20021;-75
2022/06/29 07:59:50;;;;;;;8.45;2.40;;;24.70;99.90;;;;;;5228182;28;20028;-75
2022/06/29 08:02:21;;;;;;;8.45;2.33;;;24.80;99.90;;;;;;5228349;28;20021;-75
2022/06/29 08:04:53;;;;;;;13.95;2.63;;;24.90;99.90;;;;;;5228192;28;20154;-74
2022/06/29 08:07:24;;;;;;;10.02;2.80;;;24.80;99.90;;;;;;5228194;28;20017;-74
2022/06/29 08:09:54;;;;;;;16.70;2.78;;;25.30;99.90;;;;;;5228001;28;20039;-84
2022/06/29 08:12:25;;;;;;;9.57;2.50;;;24.80;99.90;;;;;;5228040;28;20032;-75
2022/06/29 08:14:56;;;;;;;8.35;2.22;;;24.90;99.90;;;;;;5228039;28;20477;-75
2022/06/29 08:17:27;;;;;;;10.57;2.75;;;24.80;99.90;;;;;;5227931;28;20029;-84
2022/06/29 08:19:58;;;;;;;11.73;3.03;;;24.80;99.90;;;;;;5227714;28;20393;-79
2022/06/29 08:22:29;;;;;;;6.75;2.10;;;25.10;99.90;;;;;;5227767;28;20053;-75
2022/06/29 08:25:00;;;;;;;12.60;3.00;;;24.90;99.90;;;;;;5226691;28;20024;-74
2022/06/29 08:27:33;;;;;;;10.48;2.97;;;25.00;99.90;;;;;;5227696;28;20025;-75
2022/06/29 08:30:05;;;;;;;10.77;2.58;;;24.80;99.90;;;;;;5227601;28;20108;-75
2022/06/29 08:32:39;;;;;;;13.05;2.60;;;24.80;99.90;;;;;;5227649;28;20079;-75
2022/06/29 08:35:10;;;;;;;9.10;2.70;;;24.70;99.90;;;;;;5227672;28;20028;-75
2022/06/29 08:37:43;;;;;;;10.38;2.60;;;24.90;99.90;;;;;;5227566;28;20033;-75
2022/06/29 08:40:16;;;;;;;14.55;3.13;;;24.80;99.90;;;;;;5227500;28;20096;-75
2022/06/29 08:42:49;;;;;;;11.30;2.10;;;25.10;99.90;;;;;;5227446;28;20056;-85
2022/06/29 08:45:21;;;;;;;12.95;2.13;;;24.50;99.90;;;;;;5227695;28;20096;-84
2022/06/29 08:47:52;;;;;;;14.35;2.13;;;24.70;99.90;;;;;;5227504;28;20029;-74
2022/06/29 08:50:23;;;;;;;6.75;1.92;;;24.60;99.90;;;;;;5227253;28;20044;-74
2022/06/29 08:52:58;;;;;;;19.38;2.83;;;24.70;99.90;;;;;;5228119;28;20033;-74
2022/06/29 08:55:31;;;;;;;11.57;2.60;;;25.00;99.90;;;;;;5227519;28;20068;-74
2022/06/29 08:58:02;;;;;;;10.43;2.30;;;25.00;99.90;;;;;;5227408;28;20489;-74
2022/06/29 09:00:36;;;;;;;10.88;2.78;;;24.90;99.90;;;;;;5227395;28;20031;-84
2022/06/29 09:03:09;;;;;;;10.70;2.55;;;25.10;99.90;;;;;;5227329;28;20060;-74
2022/06/29 09:05:40;;;;;;;7.72;2.40;;;25.20;99.90;;;;;;5227499;28;20052;-75
2022/06/29 09:08:11;;;;;;;9.13;2.60;;;25.30;99.90;;;;;;5227253;28;20079;-74
2022/06/29 09:10:42;;;;;;;7.78;2.47;;;25.60;99.90;;;;;;5227275;28;20476;-74
2022/06/29 09:13:23;;;;;;;13.68;2.30;;;25.50;99.90;;;;;;5227264;28;20469;-74
2022/06/29 09:15:58;;;;;;;8.90;2.00;;;25.50;99.90;;;;;;5227255;28;20033;-74
2022/06/29 09:18:31;;;;;;;12.02;2.40;;;25.90;99.90;;;;;;5227137;28;20029;-75
2022/06/29 09:21:06;;;;;;;9.02;2.30;;;26.00;99.90;;;;;;5226708;28;20049;-74
2022/06/29 09:23:37;;;;;;;10.30;2.13;;;25.80;99.90;;;;;;5227395;28;20049;-74
2022/06/29 09:26:07;;;;;;;11.30;2.53;;;25.50;99.90;;;;;;5227095;28;20018;-74
2022/06/29 09:28:38;;;;;;;7.97;2.35;;;25.60;99.90;;;;;;5227063;28;20372;-74
2022/06/29 09:31:09;;;;;;;12.82;2.70;;;25.60;99.90;;;;;;5227076;28;20480;-75
2022/06/29 09:33:40;;;;;;;10.75;2.60;;;25.90;99.90;;;;;;5227226;28;20453;-84
2022/06/29 09:36:16;;;;;;;9.35;2.33;;;25.50;99.90;;;;;;5227104;28;20033;-74
2022/06/29 09:38:47;;;;;;;9.50;2.20;;;26.30;99.90;;;;;;5227079;28;20057;-84
2022/06/29 09:41:18;;;;;;;17.13;2.20;;;25.90;99.90;;;;;;5227065;28;20052;-83
2022/06/29 09:43:49;;;;;;;9.52;2.72;;;25.70;99.90;;;;;;5226932;28;20040;-75
2022/06/29 09:46:21;;;;;;;13.25;2.20;;;25.50;99.90;;;;;;5227070;28;20108;-75
2022/06/29 09:48:52;;;;;;;7.10;1.90;;;25.80;99.90;;;;;;5226803;28;20436;-75
2022/06/29 09:51:32;;;;;;;7.57;2.20;;;26.00;99.90;;;;;;5225473;28;20040;-74
2022/06/29 09:54:07;;;;;;;9.45;2.30;;;25.90;99.90;;;;;;5229410;28;20061;-84
2022/06/29 09:56:46;;;;;;;10.75;2.55;;;26.00;99.90;;;;;;5230865;28;20029;-74
2022/06/29 10:02:35;;;;;;;13.45;2.45;;;25.70;99.90;;;;;;5230983;28;20087;-84
2022/06/29 10:05:23;;;;;;;11.27;2.63;;;25.80;99.90;;;;;;5230473;28;20028;-74
2022/06/29 10:07:55;;;;;;;12.15;2.42;;;26.40;99.90;;;;;;5230608;28;20021;-74
2022/06/29 10:10:27;;;;;;;9.30;2.45;;;26.10;99.90;;;;;;5230292;28;20499;-74
2022/06/29 10:13:42;;;;;;;9.75;2.42;;;26.60;99.90;;;;;;5230260;28;20021;-75
2022/06/29 10:16:40;;;;;;;15.60;2.88;;;26.30;99.90;;;;;;5230450;28;20112;-74
2022/06/29 10:19:26;;;;;;;8.23;1.95;;;25.90;99.90;;;;;;5230220;28;20039;-74
2022/06/29 10:21:57;;;;;;;10.38;2.33;;;26.10;99.90;;;;;;5229857;28;20076;-83
2022/06/29 10:24:28;;;;;;;6.28;1.90;;;26.50;99.90;;;;;;5230331;28;20052;-83
2022/06/29 10:27:06;;;;;;;15.45;2.20;;;27.20;99.90;;;;;;5230084;28;20021;-73
2022/06/29 10:29:37;;;;;;;14.48;2.40;;;27.50;99.90;;;;;;5230069;28;20029;-75
2022/06/29 10:32:13;;;;;;;10.27;2.17;;;27.30;99.90;;;;;;5229955;28;20083;-75
2022/06/29 10:37:47;;;;;;;8.35;2.00;;;26.80;99.90;;;;;;5230100;28;20037;-75
2022/06/29 10:40:24;;;;;;;7.60;2.05;;;27.10;99.90;;;;;;5229940;28;20020;-84
2022/06/29 10:43:10;;;;;;;8.77;1.90;;;27.00;99.90;;;;;;5230073;28;20354;-75
2022/06/29 10:45:47;;;;;;;7.65;2.30;;;27.00;99.90;;;;;;5229927;28;20033;-75
2022/06/29 10:48:20;;;;;;;5.40;1.98;;;27.60;99.90;;;;;;5229775;28;20017;-84
2022/06/29 10:50:51;;;;;;;7.13;1.80;;;27.90;99.90;;;;;;5229360;28;20068;-83
2022/06/29 10:53:22;;;;;;;7.43;2.10;;;27.80;99.90;;;;;;5229599;28;20041;-83
2022/06/29 10:55:55;;;;;;;6.78;1.67;;;27.80;99.90;;;;;;5229572;28;20465;-76
2022/06/29 10:58:26;;;;;;;12.52;2.05;;;27.40;99.90;;;;;;5229741;28;20353;-83
2022/06/29 11:00:57;;;;;;;9.35;1.75;;;27.80;99.90;;;;;;5229325;28;20021;-84
2022/06/29 11:03:28;;;;;;;5.80;1.63;;;27.70;99.90;;;;;;5229356;28;20503;-74
2022/06/29 11:12:01;;;;;;;7.75;2.08;;;27.80;99.90;;;;;;5229401;28;20044;-75
2022/06/29 11:17:40;;;;;;;12.75;1.95;;;27.10;99.90;;;;;;5229357;28;20070;-74
2022/06/29 11:20:22;;;;;;;7.75;1.88;;;27.50;99.90;;;;;;5228968;28;20538;-74
2022/06/29 11:22:53;;;;;;;11.32;1.67;;;28.30;99.90;;;;;;5227811;28;20554;-84
2022/06/29 11:25:24;;;;;;;6.82;1.60;;;27.60;99.90;;;;;;5228980;28;20024;-74
2022/06/29 11:27:55;;;;;;;5.53;1.48;;;27.70;99.90;;;;;;5228891;28;20618;-84
2022/06/29 11:30:26;;;;;;;5.68;1.35;;;27.80;99.90;;;;;;5228722;28;20037;-75
2022/06/29 11:32:57;;;;;;;6.60;1.73;;;27.80;99.90;;;;;;5228704;28;20033;-75
2022/06/29 11:35:29;;;;;;;8.88;2.22;;;27.90;99.90;;;;;;5228812;28;20412;-84
2022/06/29 11:38:05;;;;;;;7.25;1.90;;;27.90;99.90;;;;;;5228753;28;20033;-84
2022/06/29 11:40:37;;;;;;;7.55;1.85;;;27.70;99.90;;;;;;5228752;28;20021;-82
2022/06/29 11:43:12;;;;;;;6.25;1.60;;;27.70;99.90;;;;;;5228571;28;20091;-83
2022/06/29 11:45:45;;;;;;;7.93;1.90;;;28.00;99.90;;;;;;5228869;28;20423;-84
2022/06/29 11:48:17;;;;;;;6.72;1.67;;;28.20;99.90;;;;;;5228545;28;20025;-84
2022/06/29 11:50:51;;;;;;;5.32;1.50;;;27.70;99.90;;;;;;5228189;28;20060;-74
2022/06/29 11:53:54;;;;;;;4.50;1.65;;;28.20;99.90;;;;;;5228369;28;20037;-83
2022/06/29 11:56:27;;;;;;;5.85;1.60;;;27.90;99.90;;;;;;5228530;28;20032;-74
2022/06/29 11:59:03;;;;;;;5.38;1.60;;;28.30;99.90;;;;;;5228393;28;20469;-74
2022/06/29 12:01:34;;;;;;;4.85;1.30;;;28.10;99.90;;;;;;5228296;28;20025;-84
2022/06/29 12:04:05;;;;;;;7.25;1.20;;;27.40;99.90;;;;;;5228283;28;20368;-74
2022/06/29 12:06:37;;;;;;;4.43;1.20;;;27.30;99.90;;;;;;5228096;28;20049;-84
2022/06/29 12:09:08;;;;;;;7.18;1.60;;;27.50;99.90;;;;;;5228097;28;20029;-74
2022/06/29 12:11:39;;;;;;;6.43;1.67;;;28.10;99.90;;;;;;5226563;28;20086;-75
2022/06/29 12:14:10;;;;;;;8.45;1.70;;;28.60;99.90;;;;;;5227932;28;20412;-74
2022/06/29 12:16:41;;;;;;;4.10;1.42;;;27.70;99.90;;;;;;5227485;28;20069;-75
2022/06/29 12:19:12;;;;;;;4.55;1.48;;;27.60;99.90;;;;;;5227918;28;20029;-84
2022/06/29 12:21:43;;;;;;;4.28;1.30;;;28.00;99.90;;;;;;5227653;28;20447;-85
2022/06/29 12:24:16;;;;;;;6.97;1.50;;;28.00;99.90;;;;;;5227964;28;20068;-84
2022/06/29 12:26:47;;;;;;;6.82;1.40;;;28.30;99.90;;;;;;5226686;28;20033;-74
2022/06/29 12:29:18;;;;;;;3.15;1.30;;;28.10;99.90;;;;;;5227790;28;20021;-83
2022/06/29 12:31:49;;;;;;;9.13;1.70;;;27.60;99.90;;;;;;5227542;28;20032;-75
2022/06/29 12:34:20;;;;;;;5.65;1.30;;;28.30;99.90;;;;;;5227581;28;20025;-74
2022/06/29 12:36:51;;;;;;;7.45;1.85;;;28.20;99.90;;;;;;5227840;28;20023;-74
2022/06/29 12:39:22;;;;;;;7.05;1.80;;;28.70;99.90;;;;;;5227554;28;20086;-74
2022/06/29 12:41:53;;;;;;;7.85;1.45;;;28.10;99.90;;;;;;5227638;28;20027;-74
2022/06/29 12:44:24;;;;;;;5.07;1.50;;;27.60;99.90;;;;;;5227632;28;20098;-75
2022/06/29 12:46:55;;;;;;;5.15;1.52;;;27.30;99.90;;;;;;5227508;28;20021;-74
2022/06/29 12:49:26;;;;;;;7.40;1.73;;;27.40;99.90;;;;;;5227673;28;20017;-84
2022/06/29 12:51:56;;;;;;;8.35;2.05;;;27.00;99.90;;;;;;5227034;28;20124;-75
2022/06/29 12:54:27;;;;;;;7.30;1.60;;;27.20;99.90;;;;;;5227430;28;20087;-74
2022/06/29 12:56:58;;;;;;;10.18;1.92;;;26.90;99.90;;;;;;5227496;28;20029;-81
2022/06/29 12:59:29;;;;;;;13.93;1.85;;;26.50;99.90;;;;;;5227388;28;20033;-84
2022/06/29 13:02:00;;;;;;;7.70;1.85;;;26.70;99.90;;;;;;5227393;28;20033;-84
2022/06/29 13:04:31;;;;;;;11.20;2.10;;;27.00;99.90;;;;;;5227457;28;20108;-76
2022/06/29 13:07:02;;;;;;;7.40;1.83;;;27.20;99.90;;;;;;5227377;28;20108;-74
2022/06/29 13:09:33;;;;;;;6.45;1.40;;;26.70;99.90;;;;;;5227381;28;20025;-75
2022/06/29 13:12:04;;;;;;;7.80;1.67;;;26.40;99.90;;;;;;5226982;28;20435;-84
2022/06/29 13:14:35;;;;;;;8.05;1.90;;;26.30;99.90;;;;;;5227303;28;20021;-74
2022/06/29 13:17:06;;;;;;;6.28;2.45;;;26.40;99.90;;;;;;5227383;28;20025;-75
2022/06/29 13:19:37;;;;;;;11.45;5.07;;;26.60;99.90;;;;;;5226995;28;20021;-74
2022/06/29 13:22:09;;;;;;;8.20;2.00;;;26.80;99.90;;;;;;5226837;28;20049;-74
2022/06/29 13:24:40;;;;;;;9.60;3.55;;;26.50;99.90;;;;;;5227205;28;20013;-85
2022/06/29 13:27:11;;;;;;;10.38;2.22;;;26.50;99.90;;;;;;5228118;28;20032;-75